Time;durP1;ratioP1;P1;durP2;ratioP2;P2;SDS_P1;SDS_P2;PMS_P1;PMS_P2;Temp;Humidity;BMP_temperature;BMP_pressure;BME280_temperature;BME280_humidity;BME280_pressure;Samples;Min_cycle;Max_cycle;Signal;HPM_P1;HPM_P2
2022/10/08 00:01:37;;;;;;;10.43;2.97;;;12.70;99.90;;;;;;5113734;28;20223;-87
2022/10/08 00:04:06;;;;;;;8.27;3.27;;;12.70;99.90;;;;;;5113593;28;20211;-88
2022/10/08 00:06:35;;;;;;;10.60;2.90;;;12.70;99.90;;;;;;5113585;28;20662;-87
2022/10/08 00:09:04;;;;;;;6.50;2.60;;;12.70;99.90;;;;;;5113693;28;20207;-87
2022/10/08 00:11:34;;;;;;;8.67;2.73;;;12.80;99.90;;;;;;5113582;28;20222;-87
2022/10/08 00:14:04;;;;;;;9.77;2.73;;;12.80;99.90;;;;;;5116449;28;20203;-85
2022/10/08 00:16:33;;;;;;;11.70;2.93;;;12.90;99.90;;;;;;5119652;28;20200;-87
2022/10/08 00:19:02;;;;;;;8.43;2.77;;;12.90;99.90;;;;;;5118261;28;20199;-86
2022/10/08 00:21:32;;;;;;;8.80;2.70;;;12.90;99.90;;;;;;5118166;28;20203;-87
2022/10/08 00:24:01;;;;;;;9.70;2.73;;;12.90;99.90;;;;;;5117753;28;20188;-87
2022/10/08 00:26:35;;;;;;;10.37;2.97;;;12.90;99.90;;;;;;5118151;28;20195;-88
2022/10/08 00:29:05;;;;;;;8.27;2.50;;;12.70;99.90;;;;;;5117909;28;20204;-93
2022/10/08 00:31:34;;;;;;;7.80;2.63;;;12.80;99.90;;;;;;5117992;28;20196;-87
2022/10/08 00:34:04;;;;;;;9.00;3.38;;;12.80;99.90;;;;;;5116697;28;20931;-87
2022/10/08 00:36:36;;;;;;;9.57;2.37;;;12.90;99.90;;;;;;5117188;28;20314;-86
2022/10/08 00:39:07;;;;;;;10.63;2.30;;;13.00;99.90;;;;;;5116989;28;20260;-88
2022/10/08 00:41:37;;;;;;;11.13;2.50;;;13.00;99.90;;;;;;5116384;28;20216;-87
2022/10/08 00:44:43;;;;;;;9.33;2.30;;;13.10;99.90;;;;;;5116937;28;20584;-87
2022/10/08 00:47:18;;;;;;;11.03;2.40;;;13.10;99.90;;;;;;5117414;28;20681;-89
2022/10/08 00:49:47;;;;;;;8.23;2.10;;;13.20;99.90;;;;;;5117799;28;20210;-87
2022/10/08 00:52:18;;;;;;;8.73;2.20;;;13.20;99.90;;;;;;5117834;28;20272;-87
2022/10/08 00:54:45;;;;;;;10.97;2.03;;;13.20;99.90;;;;;;5116740;28;20232;-92
2022/10/08 00:57:18;;;;;;;8.57;2.43;;;13.20;99.90;;;;;;5117925;28;20661;-87
2022/10/08 00:59:45;;;;;;;7.93;2.10;;;13.30;99.90;;;;;;5118397;28;20206;-90
2022/10/08 01:02:12;;;;;;;11.33;2.80;;;13.20;99.90;;;;;;5117100;28;20202;-88
2022/10/08 01:04:42;;;;;;;6.83;2.30;;;13.30;99.90;;;;;;5117521;28;20211;-91
2022/10/08 01:07:22;;;;;;;7.87;2.87;;;13.20;99.90;;;;;;5117223;28;20214;-87
2022/10/08 01:09:58;;;;;;;8.37;2.27;;;13.30;99.90;;;;;;5116927;28;20208;-87
2022/10/08 01:12:36;;;;;;;14.13;2.53;;;13.30;99.90;;;;;;5117017;28;20270;-87
2022/10/08 01:15:21;;;;;;;8.03;1.87;;;13.30;99.90;;;;;;5116427;28;20246;-87
2022/10/08 01:17:55;;;;;;;7.20;2.17;;;13.20;99.90;;;;;;5117147;28;20192;-88
2022/10/08 01:20:44;;;;;;;6.43;2.43;;;13.20;99.90;;;;;;5117055;28;20211;-93
2022/10/08 01:23:35;;;;;;;7.13;1.97;;;13.20;99.90;;;;;;5116054;28;20208;-94
2022/10/08 01:26:24;;;;;;;5.40;2.10;;;13.30;99.90;;;;;;5104682;28;20218;-91
2022/10/08 01:29:05;;;;;;;7.87;2.80;;;13.30;99.90;;;;;;5117326;28;20208;-91
2022/10/08 01:31:39;;;;;;;8.03;2.13;;;13.20;99.90;;;;;;5116698;28;20207;-89
2022/10/08 01:34:17;;;;;;;8.23;2.92;;;13.30;99.90;;;;;;5115377;28;20432;-89
2022/10/08 01:36:47;;;;;;;9.03;2.57;;;13.30;99.90;;;;;;5116431;28;20231;-89
2022/10/08 01:39:17;;;;;;;9.23;2.80;;;13.30;99.90;;;;;;5118480;28;20211;-87
2022/10/08 01:41:48;;;;;;;3.97;2.10;;;13.30;99.90;;;;;;5117471;28;20203;-87
2022/10/08 01:44:22;;;;;;;7.63;2.33;;;13.30;99.90;;;;;;5115925;28;20219;-87
2022/10/08 01:46:51;;;;;;;5.53;2.07;;;13.30;99.90;;;;;;5116359;28;20222;-86
2022/10/08 01:49:22;;;;;;;8.63;2.17;;;13.30;99.90;;;;;;5117056;28;20623;-87
2022/10/08 01:51:53;;;;;;;10.17;2.50;;;13.20;99.90;;;;;;5116752;28;20215;-90
2022/10/08 01:54:23;;;;;;;7.50;1.90;;;13.20;99.90;;;;;;5116966;28;20197;-90
2022/10/08 01:56:56;;;;;;;8.07;2.10;;;13.20;99.90;;;;;;5116177;28;20236;-93
2022/10/08 01:59:31;;;;;;;5.43;1.80;;;13.20;99.90;;;;;;5116204;28;20207;-90
2022/10/08 02:02:06;;;;;;;11.55;2.70;;;13.30;99.90;;;;;;5115437;28;20431;-88
2022/10/08 02:04:33;;;;;;;8.83;2.37;;;13.40;99.90;;;;;;5115885;28;20218;-89
2022/10/08 02:07:06;;;;;;;9.87;2.67;;;13.30;99.90;;;;;;5115405;28;20253;-87
2022/10/08 02:09:41;;;;;;;4.23;2.13;;;13.30;99.90;;;;;;5115956;28;20211;-93
2022/10/08 02:12:10;;;;;;;10.13;2.20;;;13.30;99.90;;;;;;5115764;28;20211;-94
2022/10/08 02:14:48;;;;;;;7.30;2.43;;;13.20;99.90;;;;;;5116320;28;20204;-89
2022/10/08 02:17:24;;;;;;;10.27;2.17;;;13.40;99.90;;;;;;5116170;28;20195;-87
2022/10/08 02:19:56;;;;;;;6.13;2.33;;;13.40;99.90;;;;;;5115950;28;20571;-87
2022/10/08 02:22:32;;;;;;;8.97;2.60;;;13.40;99.90;;;;;;5117099;28;20712;-88
2022/10/08 02:25:04;;;;;;;8.27;2.13;;;13.40;99.90;;;;;;5115716;28;20208;-86
2022/10/08 02:27:40;;;;;;;5.70;2.17;;;13.50;99.90;;;;;;5116265;28;20199;-87
2022/10/08 02:30:12;;;;;;;9.35;2.60;;;13.50;99.90;;;;;;5114471;28;20440;-87
2022/10/08 02:32:51;;;;;;;6.40;2.30;;;13.40;99.90;;;;;;5115250;28;20199;-92
2022/10/08 02:35:25;;;;;;;8.37;3.00;;;13.30;99.90;;;;;;5114143;28;20588;-88
2022/10/08 02:37:59;;;;;;;8.10;3.17;;;13.30;99.90;;;;;;5115938;28;20543;-87
2022/10/08 02:40:27;;;;;;;7.83;3.00;;;13.40;99.90;;;;;;5113971;28;20219;-87
2022/10/08 02:42:57;;;;;;;11.60;3.63;;;13.40;99.90;;;;;;5114838;28;20576;-89
2022/10/08 02:45:31;;;;;;;9.40;2.67;;;13.50;99.90;;;;;;5115267;28;20204;-88
2022/10/08 02:48:03;;;;;;;5.53;2.60;;;13.50;99.90;;;;;;5115595;28;20234;-87
2022/10/08 02:50:34;;;;;;;7.90;3.13;;;13.40;99.90;;;;;;5115203;28;20234;-87
2022/10/08 02:53:05;;;;;;;9.63;2.80;;;13.30;99.90;;;;;;5114985;28;20199;-88
2022/10/08 02:55:44;;;;;;;8.70;3.17;;;13.30;99.90;;;;;;5114808;28;20222;-87
2022/10/08 02:58:17;;;;;;;7.80;2.77;;;13.30;99.90;;;;;;5115176;28;20208;-88
2022/10/08 03:00:52;;;;;;;7.95;3.42;;;13.30;99.90;;;;;;5114473;28;20424;-90
2022/10/08 03:03:25;;;;;;;10.50;3.03;;;13.50;99.90;;;;;;5115254;27;20224;-87
2022/10/08 03:05:52;;;;;;;7.73;3.30;;;13.60;99.90;;;;;;5114918;28;20211;-87
2022/10/08 03:08:21;;;;;;;6.73;2.60;;;13.50;99.90;;;;;;5114355;28;20195;-89
2022/10/08 03:10:49;;;;;;;4.43;2.70;;;13.50;99.90;;;;;;5114712;28;20193;-88
2022/10/08 03:13:18;;;;;;;8.60;3.00;;;13.30;99.90;;;;;;5114684;28;20200;-88
2022/10/08 03:15:50;;;;;;;8.97;3.17;;;13.30;99.90;;;;;;5114410;28;20297;-87
2022/10/08 03:18:19;;;;;;;7.87;2.90;;;13.20;99.90;;;;;;5114205;28;20654;-87
2022/10/08 03:20:51;;;;;;;6.83;2.63;;;13.20;99.90;;;;;;5114654;28;20612;-87
2022/10/08 03:23:19;;;;;;;9.53;3.40;;;13.20;99.90;;;;;;5114752;28;20197;-87
2022/10/08 03:25:46;;;;;;;4.77;2.87;;;13.00;99.90;;;;;;5113607;28;20206;-91
2022/10/08 03:28:14;;;;;;;6.30;3.00;;;13.00;99.90;;;;;;5115391;28;20204;-92
2022/10/08 03:30:42;;;;;;;12.67;3.07;;;13.00;99.90;;;;;;5115321;28;20203;-89
2022/10/08 03:33:10;;;;;;;11.57;2.87;;;13.00;99.90;;;;;;5114703;28;20207;-89
2022/10/08 03:35:45;;;;;;;11.53;3.27;;;12.90;99.90;;;;;;5114352;28;20230;-89
2022/10/08 03:38:19;;;;;;;9.43;3.07;;;12.80;99.90;;;;;;5114783;28;20720;-91
2022/10/08 03:40:54;;;;;;;11.50;3.03;;;12.90;99.90;;;;;;5114593;28;20200;-86
2022/10/08 03:43:21;;;;;;;8.10;2.73;;;12.80;99.90;;;;;;5114040;27;20713;-87
2022/10/08 03:45:51;;;;;;;9.70;3.03;;;12.80;99.90;;;;;;5114386;28;20211;-87
2022/10/08 03:48:20;;;;;;;9.77;3.17;;;12.80;99.90;;;;;;5117130;28;20196;-88
2022/10/08 03:50:52;;;;;;;9.23;3.27;;;12.80;99.90;;;;;;5119111;28;20213;-87
2022/10/08 03:53:18;;;;;;;7.07;2.63;;;12.80;99.90;;;;;;5118660;28;20203;-88
2022/10/08 03:55:47;;;;;;;8.50;3.20;;;12.70;99.90;;;;;;5118834;28;20222;-88
2022/10/08 03:58:15;;;;;;;4.93;3.03;;;12.80;99.90;;;;;;5118686;28;20207;-88
2022/10/08 04:00:43;;;;;;;8.20;2.67;;;12.80;99.90;;;;;;5119235;28;20200;-86
2022/10/08 04:03:10;;;;;;;17.37;3.60;;;12.80;99.90;;;;;;5117782;28;20302;-88
2022/10/08 04:05:38;;;;;;;11.23;3.00;;;12.70;99.90;;;;;;5120109;28;20222;-89
2022/10/08 04:08:12;;;;;;;10.60;3.10;;;12.70;99.90;;;;;;5119539;28;20200;-87
2022/10/08 04:10:40;;;;;;;9.87;2.97;;;12.70;99.90;;;;;;5119823;28;20208;-88
2022/10/08 04:13:07;;;;;;;9.30;3.20;;;12.60;99.90;;;;;;5118264;28;20665;-88
2022/10/08 04:15:35;;;;;;;10.13;3.27;;;12.60;99.90;;;;;;5118405;28;20222;-87
2022/10/08 04:18:06;;;;;;;10.43;3.80;;;12.60;99.90;;;;;;5124156;28;20206;-92
2022/10/08 04:20:34;;;;;;;8.93;3.10;;;12.60;99.90;;;;;;5128284;28;20669;-88
2022/10/08 04:23:04;;;;;;;7.27;3.03;;;12.50;99.90;;;;;;5124690;28;20199;-87
2022/10/08 04:25:32;;;;;;;10.10;3.10;;;12.50;99.90;;;;;;5123588;28;20192;-93
2022/10/08 04:27:58;;;;;;;9.07;3.07;;;12.50;99.90;;;;;;5122445;28;20191;-92
2022/10/08 04:30:25;;;;;;;10.17;3.17;;;12.40;99.90;;;;;;5123080;28;20207;-93
2022/10/08 04:32:52;;;;;;;8.23;3.80;;;12.50;99.90;;;;;;5124141;28;20210;-92
2022/10/08 04:35:19;;;;;;;9.20;3.13;;;12.40;99.90;;;;;;5122455;28;20192;-90
2022/10/08 04:37:49;;;;;;;11.07;3.47;;;12.40;99.90;;;;;;5119174;28;20207;-93
2022/10/08 04:40:21;;;;;;;10.40;3.30;;;12.40;99.90;;;;;;5121049;28;20528;-93
2022/10/08 04:42:51;;;;;;;10.63;3.07;;;12.40;99.90;;;;;;5121794;27;20211;-92
2022/10/08 04:45:20;;;;;;;9.63;3.03;;;12.40;99.90;;;;;;5126812;28;20207;-93
2022/10/08 04:47:54;;;;;;;11.03;3.60;;;12.40;99.90;;;;;;5123488;28;20199;-93
2022/10/08 04:50:21;;;;;;;10.97;3.50;;;12.30;99.90;;;;;;5122284;28;20206;-94
2022/10/08 04:52:51;;;;;;;11.70;3.50;;;12.30;99.90;;;;;;5122818;28;20196;-94
2022/10/08 04:55:25;;;;;;;11.07;3.30;;;12.30;99.90;;;;;;5123129;28;20187;-94
2022/10/08 04:57:52;;;;;;;10.53;3.43;;;12.20;99.90;;;;;;5122743;28;20191;-92
2022/10/08 05:00:19;;;;;;;16.67;4.17;;;12.30;99.90;;;;;;5121790;28;20191;-93
2022/10/08 05:02:46;;;;;;;13.30;3.80;;;12.30;99.90;;;;;;5122590;28;20244;-94
2022/10/08 05:05:15;;;;;;;12.20;3.40;;;12.20;99.90;;;;;;5122491;28;20203;-89
2022/10/08 05:07:42;;;;;;;12.33;3.40;;;12.10;99.90;;;;;;5121838;28;20290;-93
2022/10/08 05:10:14;;;;;;;14.87;4.00;;;12.10;99.90;;;;;;5122326;28;20207;-92
2022/10/08 05:12:45;;;;;;;11.80;3.70;;;12.00;99.90;;;;;;5122460;27;20194;-93
2022/10/08 05:15:18;;;;;;;12.93;3.60;;;12.00;99.90;;;;;;5121771;28;20215;-92
2022/10/08 05:17:54;;;;;;;11.10;3.33;;;12.00;99.90;;;;;;5120466;28;20226;-89
2022/10/08 05:20:21;;;;;;;14.63;3.87;;;12.00;99.90;;;;;;5118614;28;20198;-93
2022/10/08 05:22:55;;;;;;;8.87;3.80;;;12.00;99.90;;;;;;5118779;28;20195;-93
2022/10/08 05:25:30;;;;;;;15.57;3.83;;;12.00;99.90;;;;;;5118650;28;20192;-93
2022/10/08 05:28:02;;;;;;;10.77;3.73;;;12.00;99.90;;;;;;5117921;28;20717;-94
2022/10/08 05:30:34;;;;;;;24.13;4.13;;;11.90;99.90;;;;;;5117762;28;20549;-93
2022/10/08 05:33:12;;;;;;;17.70;4.43;;;11.90;99.90;;;;;;5117385;28;20197;-92
2022/10/08 05:35:41;;;;;;;11.33;3.97;;;11.90;99.90;;;;;;5117159;28;20202;-93
2022/10/08 05:38:08;;;;;;;18.37;4.57;;;11.80;99.90;;;;;;5117497;28;20191;-91
2022/10/08 05:40:38;;;;;;;12.63;4.27;;;11.90;99.90;;;;;;5117375;28;20205;-93
2022/10/08 05:43:06;;;;;;;13.77;4.50;;;11.90;99.90;;;;;;5117106;28;20295;-90
2022/10/08 05:45:36;;;;;;;12.13;3.57;;;11.90;99.90;;;;;;5116622;28;20673;-91
2022/10/08 05:48:06;;;;;;;18.53;4.27;;;11.90;99.90;;;;;;5116818;28;20646;-92
2022/10/08 05:50:36;;;;;;;12.60;4.37;;;11.90;99.90;;;;;;5115724;28;20207;-93
2022/10/08 05:53:20;;;;;;;16.30;3.80;;;11.90;99.90;;;;;;5112645;28;20208;-91
2022/10/08 05:55:46;;;;;;;11.70;4.50;;;11.90;99.90;;;;;;5116247;28;20209;-93
2022/10/08 05:58:14;;;;;;;10.87;4.00;;;11.80;99.90;;;;;;5119475;28;20197;-87
2022/10/08 06:00:41;;;;;;;9.33;4.20;;;11.90;99.90;;;;;;5112068;28;20225;-91
2022/10/08 06:03:08;;;;;;;8.47;3.80;;;11.80;99.90;;;;;;5095666;28;20735;-89
2022/10/08 06:05:37;;;;;;;11.30;4.23;;;11.90;99.90;;;;;;5095321;28;20210;-93
2022/10/08 06:08:05;;;;;;;17.60;5.10;;;11.90;99.90;;;;;;5096508;28;20206;-90
2022/10/08 06:10:34;;;;;;;11.43;3.53;;;11.90;99.90;;;;;;5098187;28;20662;-92
2022/10/08 06:13:01;;;;;;;15.80;3.80;;;11.90;99.90;;;;;;5096157;28;20197;-90
2022/10/08 06:15:35;;;;;;;12.40;3.90;;;11.80;99.90;;;;;;5096240;28;20206;-91
2022/10/08 06:18:05;;;;;;;12.67;4.30;;;11.80;99.90;;;;;;5095462;28;20229;-88
2022/10/08 06:20:38;;;;;;;11.63;4.37;;;11.80;99.90;;;;;;5095606;28;20203;-91
2022/10/08 06:23:06;;;;;;;7.33;3.40;;;11.80;99.90;;;;;;5095462;28;20202;-91
2022/10/08 06:25:37;;;;;;;17.17;4.40;;;11.80;99.90;;;;;;5095388;28;20510;-91
2022/10/08 06:28:06;;;;;;;10.87;3.90;;;11.80;99.90;;;;;;5095362;28;20267;-92
2022/10/08 06:30:38;;;;;;;14.67;4.20;;;11.80;99.90;;;;;;5095695;28;20190;-91
2022/10/08 06:33:06;;;;;;;11.50;4.20;;;11.70;99.90;;;;;;5095317;28;20205;-91
2022/10/08 06:35:37;;;;;;;12.07;3.97;;;11.70;99.90;;;;;;5095182;28;20675;-92
2022/10/08 06:38:06;;;;;;;14.67;4.17;;;11.80;99.90;;;;;;5094862;28;20689;-92
2022/10/08 06:40:37;;;;;;;14.17;4.63;;;11.80;99.90;;;;;;5094964;28;20191;-91
2022/10/08 06:43:06;;;;;;;13.53;4.50;;;11.80;99.90;;;;;;5095015;28;20562;-91
2022/10/08 06:45:39;;;;;;;9.57;4.03;;;11.90;99.90;;;;;;5105509;28;20557;-92
2022/10/08 06:48:07;;;;;;;11.53;3.90;;;11.80;99.90;;;;;;5116030;28;20203;-89
2022/10/08 06:50:36;;;;;;;12.53;4.67;;;11.90;99.90;;;;;;5116457;28;20214;-89
2022/10/08 06:53:03;;;;;;;16.80;4.33;;;11.90;99.90;;;;;;5117434;28;20201;-92
2022/10/08 06:55:34;;;;;;;11.67;4.17;;;12.00;99.90;;;;;;5115274;28;20194;-90
2022/10/08 06:58:04;;;;;;;12.40;3.40;;;12.00;99.90;;;;;;5115195;28;20215;-91
2022/10/08 07:00:32;;;;;;;8.57;3.90;;;12.00;99.90;;;;;;5115036;28;20214;-93
2022/10/08 07:03:05;;;;;;;11.70;3.97;;;12.00;99.90;;;;;;5114773;28;20233;-90
2022/10/08 07:05:38;;;;;;;15.73;3.80;;;12.10;99.90;;;;;;5118446;28;20217;-92
2022/10/08 07:08:05;;;;;;;10.10;3.77;;;12.10;99.90;;;;;;5119070;28;20662;-93
2022/10/08 07:10:33;;;;;;;11.57;3.77;;;12.10;99.90;;;;;;5113784;28;20190;-90
2022/10/08 07:13:00;;;;;;;12.40;4.10;;;12.10;99.90;;;;;;5115561;28;20202;-89
2022/10/08 07:15:27;;;;;;;13.20;3.73;;;12.20;99.90;;;;;;5117291;28;20219;-90
2022/10/08 07:17:54;;;;;;;9.73;3.80;;;12.20;99.90;;;;;;5116078;28;20263;-92
2022/10/08 07:20:23;;;;;;;17.70;4.50;;;12.20;99.90;;;;;;5115836;28;20211;-93
2022/10/08 07:22:49;;;;;;;12.23;4.00;;;12.20;99.90;;;;;;5115445;28;20199;-92
2022/10/08 07:25:16;;;;;;;10.30;3.70;;;12.20;99.90;;;;;;5115078;28;20202;-94
2022/10/08 07:27:43;;;;;;;10.27;3.93;;;12.30;99.90;;;;;;5118817;28;20194;-93
2022/10/08 07:30:11;;;;;;;11.10;4.07;;;12.40;99.90;;;;;;5118696;28;20191;-93
2022/10/08 07:32:38;;;;;;;11.97;3.43;;;12.50;99.90;;;;;;5117706;28;20190;-91
2022/10/08 07:35:05;;;;;;;14.63;3.70;;;12.50;99.90;;;;;;5122385;28;20190;-91
2022/10/08 07:37:41;;;;;;;9.67;3.40;;;12.50;99.90;;;;;;5121520;28;20230;-92
2022/10/08 07:40:08;;;;;;;6.77;3.20;;;12.60;99.90;;;;;;5117842;28;20674;-89
2022/10/08 07:42:35;;;;;;;8.53;3.03;;;12.50;99.90;;;;;;5121197;28;20201;-93
2022/10/08 07:45:02;;;;;;;9.57;3.10;;;12.50;99.90;;;;;;5120789;28;20215;-94
2022/10/08 07:47:29;;;;;;;9.77;2.97;;;12.60;99.90;;;;;;5118601;28;20200;-94
2022/10/08 07:49:56;;;;;;;10.83;3.10;;;12.70;99.90;;;;;;5115832;28;20210;-86
2022/10/08 07:52:22;;;;;;;11.63;2.70;;;12.80;99.90;;;;;;5114896;28;20202;-93
2022/10/08 07:54:50;;;;;;;12.20;3.27;;;12.80;99.90;;;;;;5113640;28;20804;-91
2022/10/08 07:57:17;;;;;;;8.50;2.57;;;12.90;99.90;;;;;;5114414;28;20490;-89
2022/10/08 07:59:44;;;;;;;7.37;2.40;;;13.00;99.90;;;;;;5114873;28;20195;-87
2022/10/08 08:02:11;;;;;;;11.00;3.37;;;13.10;99.90;;;;;;5113973;28;20233;-93
2022/10/08 08:04:37;;;;;;;7.50;2.00;;;13.00;99.90;;;;;;5114176;28;20209;-92
2022/10/08 08:07:04;;;;;;;8.63;2.50;;;13.10;99.90;;;;;;5114240;28;20215;-91
2022/10/08 08:09:31;;;;;;;5.47;1.80;;;13.20;99.90;;;;;;5113828;28;20192;-92
2022/10/08 08:11:59;;;;;;;5.70;1.90;;;13.30;99.90;;;;;;5114206;28;20565;-86
2022/10/08 08:14:26;;;;;;;14.30;2.00;;;13.30;99.90;;;;;;5112699;28;20596;-91
2022/10/08 08:16:53;;;;;;;8.00;1.93;;;13.30;99.90;;;;;;5113795;28;20231;-86
2022/10/08 08:19:20;;;;;;;5.70;2.10;;;13.40;99.90;;;;;;5113279;28;20204;-88
2022/10/08 08:21:46;;;;;;;12.67;2.37;;;13.50;99.90;;;;;;5113563;28;20200;-89
2022/10/08 08:24:14;;;;;;;8.10;2.30;;;13.60;99.90;;;;;;5112425;28;20422;-91
2022/10/08 08:26:42;;;;;;;5.73;1.77;;;13.60;99.90;;;;;;5114639;28;20192;-85
2022/10/08 08:29:12;;;;;;;8.67;2.43;;;13.70;99.90;;;;;;5113472;28;20191;-85
2022/10/08 08:31:42;;;;;;;9.83;1.63;;;13.80;99.90;;;;;;5113343;28;20219;-86
2022/10/08 08:34:10;;;;;;;6.50;1.43;;;13.80;99.90;;;;;;5115350;28;20195;-84
2022/10/08 08:36:39;;;;;;;7.93;2.10;;;13.80;99.90;;;;;;5116925;28;20192;-85
2022/10/08 08:39:08;;;;;;;6.30;1.93;;;13.70;99.90;;;;;;5115474;28;20885;-84
2022/10/08 08:41:54;;;;;;;9.73;2.17;;;13.80;99.90;;;;;;5116752;28;20204;-83
2022/10/08 08:44:24;;;;;;;7.57;1.83;;;13.80;99.90;;;;;;5115558;28;20211;-85
2022/10/08 08:46:59;;;;;;;4.67;2.07;;;13.80;99.90;;;;;;5116713;28;20208;-87
2022/10/08 08:49:33;;;;;;;8.97;2.07;;;13.90;99.90;;;;;;5116791;28;20196;-85
2022/10/08 08:52:03;;;;;;;10.07;2.10;;;13.90;99.90;;;;;;5116610;28;20195;-84
2022/10/08 08:54:30;;;;;;;7.05;2.40;;;13.90;99.90;;;;;;5115984;28;20519;-87
2022/10/08 08:57:08;;;;;;;5.83;1.93;;;13.90;99.90;;;;;;5116426;28;20196;-84
2022/10/08 08:59:41;;;;;;;3.87;1.50;;;13.90;99.90;;;;;;5116796;28;20191;-92
2022/10/08 09:02:18;;;;;;;6.03;1.80;;;14.00;99.90;;;;;;5116703;28;20216;-85
2022/10/08 09:04:50;;;;;;;7.13;1.57;;;13.90;99.90;;;;;;5114592;28;20195;-84
2022/10/08 09:07:20;;;;;;;9.03;1.90;;;14.00;99.90;;;;;;5115744;28;20203;-84
2022/10/08 09:09:50;;;;;;;6.47;1.50;;;13.90;99.90;;;;;;5115827;28;20200;-87
2022/10/08 09:12:19;;;;;;;5.83;1.40;;;14.10;99.90;;;;;;5116041;28;20200;-86
2022/10/08 09:14:51;;;;;;;5.40;1.73;;;14.20;99.90;;;;;;5115533;28;20203;-85
2022/10/08 09:17:21;;;;;;;5.43;1.20;;;14.30;99.90;;;;;;5115775;28;20273;-87
2022/10/08 09:19:50;;;;;;;4.63;1.40;;;14.20;99.90;;;;;;5115155;28;20204;-87
2022/10/08 09:22:22;;;;;;;5.10;1.60;;;14.20;99.90;;;;;;5114101;28;20221;-90
2022/10/08 09:24:53;;;;;;;7.43;1.53;;;14.30;99.90;;;;;;5118361;28;20223;-90
2022/10/08 09:27:19;;;;;;;4.63;1.40;;;14.30;99.90;;;;;;5120953;28;20231;-90
2022/10/08 09:29:48;;;;;;;5.00;1.70;;;14.30;99.90;;;;;;5121363;28;20200;-91
2022/10/08 09:32:17;;;;;;;5.73;1.80;;;14.30;99.90;;;;;;5124334;28;20206;-92
2022/10/08 09:34:47;;;;;;;6.63;1.50;;;14.30;99.90;;;;;;5118807;28;20195;-88
2022/10/08 09:37:21;;;;;;;6.53;1.60;;;14.40;99.90;;;;;;5114212;28;20287;-88
2022/10/08 09:40:07;;;;;;;7.03;1.70;;;14.50;99.90;;;;;;5114296;28;20200;-88
2022/10/08 09:42:35;;;;;;;8.03;1.60;;;14.50;99.90;;;;;;5114230;28;20201;-89
2022/10/08 09:45:24;;;;;;;6.13;1.30;;;14.60;99.90;;;;;;5113086;28;20659;-89
2022/10/08 09:48:13;;;;;;;4.47;1.30;;;14.60;99.90;;;;;;5114593;28;20196;-90
2022/10/08 09:50:48;;;;;;;3.93;1.30;;;14.50;99.90;;;;;;5110081;28;20197;-90
2022/10/08 09:53:16;;;;;;;2.33;1.00;;;14.60;99.90;;;;;;5115915;28;20196;-89
2022/10/08 09:55:50;;;;;;;8.83;1.47;;;14.60;99.90;;;;;;5115922;28;20199;-89
2022/10/08 09:58:20;;;;;;;5.17;1.20;;;14.60;99.90;;;;;;5116269;28;20227;-90
2022/10/08 10:00:58;;;;;;;4.00;1.40;;;14.60;99.90;;;;;;5116219;28;20200;-90
2022/10/08 10:03:27;;;;;;;5.50;1.77;;;14.80;99.90;;;;;;5115764;28;20656;-89
2022/10/08 10:05:56;;;;;;;4.53;1.30;;;14.90;99.90;;;;;;5115751;28;20204;-90
2022/10/08 10:08:47;;;;;;;6.83;1.43;;;15.00;99.90;;;;;;5116070;28;20666;-90
2022/10/08 10:11:20;;;;;;;6.07;1.20;;;15.00;99.90;;;;;;5116538;27;20205;-86
2022/10/08 10:13:49;;;;;;;7.20;1.60;;;15.10;99.90;;;;;;5115956;28;20186;-87
2022/10/08 10:16:22;;;;;;;4.03;1.33;;;15.20;99.90;;;;;;5116232;28;20215;-88
2022/10/08 10:18:54;;;;;;;5.17;1.40;;;15.20;99.90;;;;;;5115640;28;20224;-87
2022/10/08 10:21:27;;;;;;;8.80;1.40;;;15.00;99.90;;;;;;5115978;28;20216;-90
2022/10/08 10:24:05;;;;;;;8.13;2.00;;;15.00;99.90;;;;;;5114468;28;20892;-90
2022/10/08 10:26:37;;;;;;;7.10;1.60;;;14.90;99.90;;;;;;5115778;27;20204;-90
2022/10/08 10:29:09;;;;;;;6.87;1.50;;;14.90;99.90;;;;;;5115513;28;20200;-90
2022/10/08 10:31:44;;;;;;;2.73;1.20;;;14.90;99.90;;;;;;5115349;28;20200;-89
2022/10/08 10:34:14;;;;;;;2.97;1.10;;;14.80;99.90;;;;;;5115545;28;20223;-91
2022/10/08 10:36:45;;;;;;;5.13;1.50;;;14.80;99.90;;;;;;5115330;28;20205;-90
2022/10/08 10:39:26;;;;;;;6.23;1.37;;;14.90;99.90;;;;;;5114953;28;20224;-89
2022/10/08 10:42:04;;;;;;;5.17;2.00;;;15.10;99.90;;;;;;5114611;28;20304;-87
2022/10/08 10:44:36;;;;;;;4.77;1.90;;;15.20;99.90;;;;;;5115250;28;20659;-87
2022/10/08 10:47:07;;;;;;;6.07;1.47;;;15.20;99.90;;;;;;5115173;28;20208;-87
2022/10/08 10:49:38;;;;;;;4.00;1.27;;;15.20;99.90;;;;;;5115065;28;20205;-87
2022/10/08 10:52:32;;;;;;;5.70;1.50;;;15.30;99.90;;;;;;5114828;28;20435;-87
2022/10/08 10:55:18;;;;;;;5.57;1.33;;;15.30;99.90;;;;;;5114848;28;20614;-87
2022/10/08 10:58:05;;;;;;;3.07;1.27;;;15.30;99.90;;;;;;5114524;28;20228;-87
2022/10/08 11:00:41;;;;;;;7.93;1.63;;;15.30;99.90;;;;;;5114852;28;20204;-87
2022/10/08 11:03:14;;;;;;;6.33;1.70;;;15.40;99.90;;;;;;5114686;28;20225;-88
2022/10/08 11:05:45;;;;;;;7.83;1.23;;;15.40;99.90;;;;;;5115483;28;20204;-87
2022/10/08 11:08:29;;;;;;;5.33;1.23;;;15.20;99.90;;;;;;5113692;28;20189;-86
2022/10/08 11:11:21;;;;;;;4.77;1.60;;;15.30;99.90;;;;;;5114204;28;20259;-86
2022/10/08 11:14:02;;;;;;;5.10;1.20;;;15.40;99.90;;;;;;5114576;28;20200;-86
2022/10/08 11:16:43;;;;;;;5.47;1.33;;;15.60;99.90;;;;;;5112635;28;20197;-86
2022/10/08 11:19:24;;;;;;;4.30;1.40;;;15.70;99.90;;;;;;5111060;28;20225;-86
2022/10/08 11:22:00;;;;;;;5.60;1.50;;;15.70;99.90;;;;;;5111534;28;20193;-86
2022/10/08 11:25:00;;;;;;;5.45;1.65;;;15.90;99.90;;;;;;5113118;28;20439;-87
2022/10/08 11:27:35;;;;;;;2.83;1.20;;;15.80;99.90;;;;;;5074889;28;20213;-85
2022/10/08 11:30:10;;;;;;;5.40;1.20;;;15.70;99.90;;;;;;5113453;28;20201;-85
2022/10/08 11:32:43;;;;;;;2.60;0.87;;;15.70;99.90;;;;;;5119374;27;20241;-85
2022/10/08 11:35:23;;;;;;;5.00;1.30;;;15.70;99.90;;;;;;5114027;28;20199;-85
2022/10/08 11:37:58;;;;;;;3.27;1.30;;;15.60;99.90;;;;;;5114208;28;20204;-85
2022/10/08 11:40:33;;;;;;;3.40;1.20;;;15.50;99.90;;;;;;5114251;28;20236;-85
2022/10/08 11:43:06;;;;;;;5.27;1.60;;;15.50;99.90;;;;;;5119060;28;20205;-87
2022/10/08 11:45:36;;;;;;;4.30;1.50;;;15.60;99.90;;;;;;5113447;28;20198;-87
2022/10/08 11:48:29;;;;;;;3.37;1.30;;;15.70;99.90;;;;;;5123031;28;20204;-87
2022/10/08 11:51:31;;;;;;;7.43;1.40;;;15.80;99.90;;;;;;5121715;28;20649;-86
2022/10/08 11:54:17;;;;;;;5.83;1.43;;;15.80;99.90;;;;;;5123030;27;20197;-80
2022/10/08 11:56:46;;;;;;;5.80;1.77;;;15.90;99.90;;;;;;5119746;28;20195;-81
2022/10/08 11:59:36;;;;;;;7.70;1.40;;;16.00;99.90;;;;;;5116930;28;20824;-81
2022/10/08 12:02:06;;;;;;;3.70;1.47;;;16.30;99.90;;;;;;5130944;28;20226;-87
2022/10/08 12:04:35;;;;;;;5.90;1.13;;;16.50;99.90;;;;;;5119641;28;20203;-88
2022/10/08 12:07:20;;;;;;;6.30;1.70;;;16.30;99.90;;;;;;5116193;28;20560;-89
2022/10/08 12:10:21;;;;;;;3.17;1.50;;;16.30;99.90;;;;;;5119801;28;20196;-89
2022/10/08 12:13:04;;;;;;;4.30;1.73;;;16.30;99.90;;;;;;5098739;28;20291;-87
2022/10/08 12:16:05;;;;;;;5.67;1.27;;;16.30;99.90;;;;;;5098538;28;20199;-87
2022/10/08 12:18:50;;;;;;;4.17;1.37;;;16.10;99.90;;;;;;5098137;28;20270;-87
2022/10/08 12:21:50;;;;;;;1.67;0.93;;;16.20;99.90;;;;;;5107637;28;20198;-87
2022/10/08 12:24:53;;;;;;;4.63;1.42;;;16.30;99.90;;;;;;5114661;28;20433;-89
2022/10/08 12:27:40;;;;;;;4.83;1.30;;;16.30;99.90;;;;;;5118614;28;20648;-88
2022/10/08 12:30:10;;;;;;;5.80;1.60;;;16.30;99.90;;;;;;5109694;28;20240;-88
2022/10/08 12:32:57;;;;;;;4.83;1.50;;;16.40;99.90;;;;;;5119285;28;20203;-89
2022/10/08 12:35:28;;;;;;;3.47;1.07;;;16.30;99.90;;;;;;5116129;28;20216;-88
2022/10/08 12:38:24;;;;;;;6.77;1.67;;;16.30;99.90;;;;;;5119773;28;20199;-89
2022/10/08 12:41:00;;;;;;;4.13;1.20;;;16.40;99.90;;;;;;5116075;28;20216;-88
2022/10/08 12:43:36;;;;;;;6.83;1.57;;;16.40;99.90;;;;;;5118284;28;20219;-88
2022/10/08 12:46:16;;;;;;;3.13;1.00;;;16.30;99.90;;;;;;5118370;28;20198;-84
2022/10/08 12:48:49;;;;;;;3.87;1.70;;;16.20;99.90;;;;;;5117219;28;20199;-88
2022/10/08 12:51:24;;;;;;;2.97;1.10;;;16.20;99.90;;;;;;5116530;28;20196;-83
2022/10/08 12:53:51;;;;;;;3.50;1.23;;;16.20;99.90;;;;;;5116038;28;20441;-83
2022/10/08 12:56:24;;;;;;;2.73;1.23;;;16.50;99.90;;;;;;5117148;28;20215;-83
2022/10/08 12:58:56;;;;;;;3.93;1.00;;;16.40;99.90;;;;;;5116576;28;20326;-84
2022/10/08 13:01:24;;;;;;;6.57;3.90;;;16.40;99.90;;;;;;5115561;28;20227;-88
2022/10/08 13:04:23;;;;;;;7.57;1.30;;;16.50;99.90;;;;;;5117456;28;20669;-90
2022/10/08 13:06:52;;;;;;;4.87;1.23;;;16.50;99.90;;;;;;5117799;28;20302;-89
2022/10/08 13:09:27;;;;;;;5.33;1.37;;;16.50;99.90;;;;;;5117208;28;20199;-89
2022/10/08 13:11:55;;;;;;;6.03;1.27;;;16.40;99.90;;;;;;5117521;28;20293;-88